sensor_id;sensor_type;location;lat;lon;timestamp;temperature;humidity
6468;DHT22;3267;48.794;9.928;2023-04-29T04:02:43;15.60;83.90
6468;DHT22;3267;48.794;9.928;2023-04-29T04:05:09;15.60;83.90
6468;DHT22;3267;48.794;9.928;2023-04-29T04:07:35;15.60;83.90
6468;DHT22;3267;48.794;9.928;2023-04-29T04:10:01;15.50;83.60
6468;DHT22;3267;48.794;9.928;2023-04-29T04:12:26;15.50;83.70
6468;DHT22;3267;48.794;9.928;2023-04-29T04:14:52;15.40;84.40
6468;DHT22;3267;48.794;9.928;2023-04-29T04:17:19;15.40;84.20
6468;DHT22;3267;48.794;9.928;2023-04-29T04:19:45;15.40;83.80
6468;DHT22;3267;48.794;9.928;2023-04-29T04:22:10;15.30;84.30
6468;DHT22;3267;48.794;9.928;2023-04-29T04:24:36;16.30;85.30
6468;DHT22;3267;48.794;9.928;2023-04-29T04:27:02;15.20;84.50
6468;DHT22;3267;48.794;9.928;2023-04-29T04:29:27;15.20;84.70
6468;DHT22;3267;48.794;9.928;2023-04-29T04:31:53;15.10;84.90
6468;DHT22;3267;48.794;9.928;2023-04-29T04:34:19;15.10;84.80
6468;DHT22;3267;48.794;9.928;2023-04-29T04:36:44;15.00;84.90
6468;DHT22;3267;48.794;9.928;2023-04-29T04:39:10;15.00;84.70
6468;DHT22;3267;48.794;9.928;2023-04-29T04:41:36;16.80;86.50
6468;DHT22;3267;48.794;9.928;2023-04-29T04:44:02;15.00;84.80
6468;DHT22;3267;48.794;9.928;2023-04-29T04:46:29;15.10;84.50
6468;DHT22;3267;48.794;9.928;2023-04-29T04:48:54;15.20;84.70
6468;DHT22;3267;48.794;9.928;2023-04-29T04:51:20;15.10;84.60
6468;DHT22;3267;48.794;9.928;2023-04-29T04:53:46;15.20;84.70
6468;DHT22;3267;48.794;9.928;2023-04-29T04:56:12;16.50;85.90
6468;DHT22;3267;48.794;9.928;2023-04-29T04:58:37;15.20;84.60
6468;DHT22;3267;48.794;9.928;2023-04-29T05:01:03;15.20;84.10
6468;DHT22;3267;48.794;9.928;2023-04-29T05:03:28;17.50;86.30
6468;DHT22;3267;48.794;9.928;2023-04-29T05:05:54;15.30;84.10
6468;DHT22;3267;48.794;9.928;2023-04-29T05:08:21;15.40;84.60
6468;DHT22;3267;48.794;9.928;2023-04-29T05:10:47;15.30;84.30
6468;DHT22;3267;48.794;9.928;2023-04-29T05:13:12;15.30;84.00
6468;DHT22;3267;48.794;9.928;2023-04-29T05:15:53;15.30;84.30
6468;DHT22;3267;48.794;9.928;2023-04-29T05:18:19;15.40;84.30
6468;DHT22;3267;48.794;9.928;2023-04-29T05:20:46;15.40;84.10
6468;DHT22;3267;48.794;9.928;2023-04-29T05:23:12;15.40;84.10
6468;DHT22;3267;48.794;9.928;2023-04-29T05:25:37;15.50;83.50
6468;DHT22;3267;48.794;9.928;2023-04-29T05:28:03;15.50;83.80
6468;DHT22;3267;48.794;9.928;2023-04-29T05:30:29;15.60;83.50
6468;DHT22;3267;48.794;9.928;2023-04-29T05:32:55;15.70;83.50
6468;DHT22;3267;48.794;9.928;2023-04-29T05:35:27;15.70;82.60
6468;DHT22;3267;48.794;9.928;2023-04-29T05:37:53;15.70;83.10
6468;DHT22;3267;48.794;9.928;2023-04-29T05:40:18;15.80;83.20
6468;DHT22;3267;48.794;9.928;2023-04-29T05:42:44;17.00;83.90
6468;DHT22;3267;48.794;9.928;2023-04-29T05:45:09;15.90;82.60
6468;DHT22;3267;48.794;9.928;2023-04-29T05:47:36;15.90;82.70
6468;DHT22;3267;48.794;9.928;2023-04-29T05:50:02;15.90;82.70
6468;DHT22;3267;48.794;9.928;2023-04-29T05:52:28;15.90;82.70
6468;DHT22;3267;48.794;9.928;2023-04-29T05:54:53;15.90;82.50
6468;DHT22;3267;48.794;9.928;2023-04-29T05:57:19;15.90;82.50
6468;DHT22;3267;48.794;9.928;2023-04-29T05:59:45;16.30;82.90
6468;DHT22;3267;48.794;9.928;2023-04-29T06:02:11;15.90;82.90
6468;DHT22;3267;48.794;9.928;2023-04-29T06:04:37;15.90;82.90
6468;DHT22;3267;48.794;9.928;2023-04-29T06:07:02;16.10;83.20
6468;DHT22;3267;48.794;9.928;2023-04-29T06:09:29;16.00;83.00
6468;DHT22;3267;48.794;9.928;2023-04-29T06:11:55;16.90;84.50
6468;DHT22;3267;48.794;9.928;2023-04-29T06:14:20;17.40;85.20
6468;DHT22;3267;48.794;9.928;2023-04-29T06:16:46;16.00;84.90
6468;DHT22;3267;48.794;9.928;2023-04-29T06:19:13;16.10;83.90
6468;DHT22;3267;48.794;9.928;2023-04-29T06:21:42;16.10;84.10
6468;DHT22;3267;48.794;9.928;2023-04-29T06:24:08;16.10;85.40
6468;DHT22;3267;48.794;9.928;2023-04-29T06:26:33;16.10;84.60
6468;DHT22;3267;48.794;9.928;2023-04-29T06:29:08;16.10;84.20
6468;DHT22;3267;48.794;9.928;2023-04-29T06:31:35;16.10;84.20
6468;DHT22;3267;48.794;9.928;2023-04-29T06:34:01;16.20;83.30
6468;DHT22;3267;48.794;9.928;2023-04-29T06:36:27;16.20;83.90
6468;DHT22;3267;48.794;9.928;2023-04-29T06:38:52;16.30;83.60
6468;DHT22;3267;48.794;9.928;2023-04-29T06:41:18;16.40;83.20
6468;DHT22;3267;48.794;9.928;2023-04-29T06:43:44;16.60;82.70
6468;DHT22;3267;48.794;9.928;2023-04-29T06:46:11;16.50;82.80
6468;DHT22;3267;48.794;9.928;2023-04-29T06:48:37;16.80;83.20
6468;DHT22;3267;48.794;9.928;2023-04-29T06:51:03;16.60;82.70
6468;DHT22;3267;48.794;9.928;2023-04-29T06:53:30;17.40;83.70
6468;DHT22;3267;48.794;9.928;2023-04-29T06:55:56;19.30;85.60
6468;DHT22;3267;48.794;9.928;2023-04-29T06:58:21;19.50;85.60
6468;DHT22;3267;48.794;9.928;2023-04-29T07:00:48;16.70;82.50
6468;DHT22;3267;48.794;9.928;2023-04-29T07:03:15;16.70;82.70
6468;DHT22;3267;48.794;9.928;2023-04-29T07:05:45;16.70;82.40
6468;DHT22;3267;48.794;9.928;2023-04-29T07:08:12;17.10;82.80
6468;DHT22;3267;48.794;9.928;2023-04-29T07:10:38;16.80;82.60
6468;DHT22;3267;48.794;9.928;2023-04-29T07:13:04;17.30;83.20
6468;DHT22;3267;48.794;9.928;2023-04-29T07:15:33;17.50;83.50
6468;DHT22;3267;48.794;9.928;2023-04-29T07:17:59;17.00;82.80
6468;DHT22;3267;48.794;9.928;2023-04-29T07:20:25;17.40;83.00
6468;DHT22;3267;48.794;9.928;2023-04-29T07:22:51;17.00;82.40
6468;DHT22;3267;48.794;9.928;2023-04-29T07:25:17;18.00;83.60
6468;DHT22;3267;48.794;9.928;2023-04-29T07:27:43;17.10;83.20
6468;DHT22;3267;48.794;9.928;2023-04-29T07:30:09;17.20;83.40
6468;DHT22;3267;48.794;9.928;2023-04-29T07:32:35;17.10;82.50
6468;DHT22;3267;48.794;9.928;2023-04-29T07:35:01;17.80;83.60
6468;DHT22;3267;48.794;9.928;2023-04-29T07:37:27;17.10;82.60
6468;DHT22;3267;48.794;9.928;2023-04-29T07:39:53;19.00;84.70
6468;DHT22;3267;48.794;9.928;2023-04-29T07:42:18;16.90;82.70
6468;DHT22;3267;48.794;9.928;2023-04-29T07:44:44;16.90;83.00
6468;DHT22;3267;48.794;9.928;2023-04-29T07:47:10;18.90;84.80
6468;DHT22;3267;48.794;9.928;2023-04-29T07:49:36;17.00;82.90
6468;DHT22;3267;48.794;9.928;2023-04-29T07:52:04;17.30;83.40
6468;DHT22;3267;48.794;9.928;2023-04-29T07:54:29;17.10;83.90
6468;DHT22;3267;48.794;9.928;2023-04-29T07:56:57;17.10;83.10
6468;DHT22;3267;48.794;9.928;2023-04-29T07:59:23;18.70;84.90
6468;DHT22;3267;48.794;9.928;2023-04-29T08:01:48;17.10;83.10
6468;DHT22;3267;48.794;9.928;2023-04-29T08:04:37;17.10;83.20
6468;DHT22;3267;48.794;9.928;2023-04-29T08:07:03;17.10;82.90
6468;DHT22;3267;48.794;9.928;2023-04-29T08:09:29;17.20;83.50
6468;DHT22;3267;48.794;9.928;2023-04-29T08:11:54;17.30;83.20
6468;DHT22;3267;48.794;9.928;2023-04-29T08:14:20;17.30;83.40
6468;DHT22;3267;48.794;9.928;2023-04-29T08:16:46;18.60;84.90
6468;DHT22;3267;48.794;9.928;2023-04-29T08:19:12;17.40;83.80
6468;DHT22;3267;48.794;9.928;2023-04-29T08:21:37;17.30;83.90
6468;DHT22;3267;48.794;9.928;2023-04-29T08:24:03;17.20;83.60
6468;DHT22;3267;48.794;9.928;2023-04-29T08:26:30;17.20;84.50
6468;DHT22;3267;48.794;9.928;2023-04-29T08:28:56;17.00;84.00
6468;DHT22;3267;48.794;9.928;2023-04-29T08:31:21;17.00;84.10
6468;DHT22;3267;48.794;9.928;2023-04-29T08:33:47;17.00;84.60
6468;DHT22;3267;48.794;9.928;2023-04-29T08:36:13;18.80;85.80
6468;DHT22;3267;48.794;9.928;2023-04-29T08:38:40;17.20;84.10
6468;DHT22;3267;48.794;9.928;2023-04-29T08:41:09;18.30;85.00
6468;DHT22;3267;48.794;9.928;2023-04-29T08:43:35;17.10;84.00
6468;DHT22;3267;48.794;9.928;2023-04-29T08:46:05;17.20;84.20
6468;DHT22;3267;48.794;9.928;2023-04-29T08:48:32;18.10;84.80
6468;DHT22;3267;48.794;9.928;2023-04-29T08:50:58;17.60;83.90
6468;DHT22;3267;48.794;9.928;2023-04-29T08:53:26;17.50;83.60
6468;DHT22;3267;48.794;9.928;2023-04-29T08:55:53;17.30;83.30
6468;DHT22;3267;48.794;9.928;2023-04-29T08:58:20;17.40;83.70
6468;DHT22;3267;48.794;9.928;2023-04-29T09:00:46;17.30;83.30
6468;DHT22;3267;48.794;9.928;2023-04-29T09:05:48;17.40;83.30
6468;DHT22;3267;48.794;9.928;2023-04-29T09:08:15;17.40;83.30
6468;DHT22;3267;48.794;9.928;2023-04-29T09:10:41;17.40;83.30
6468;DHT22;3267;48.794;9.928;2023-04-29T09:13:07;17.40;83.30
6468;DHT22;3267;48.794;9.928;2023-04-29T09:15:37;17.70;83.50
6468;DHT22;3267;48.794;9.928;2023-04-29T09:18:04;17.50;83.30
6468;DHT22;3267;48.794;9.928;2023-04-29T09:20:30;17.50;83.20
6468;DHT22;3267;48.794;9.928;2023-04-29T09:23:00;17.50;83.20
6468;DHT22;3267;48.794;9.928;2023-04-29T09:25:27;18.20;83.80
6468;DHT22;3267;48.794;9.928;2023-04-29T09:27:55;18.40;84.10
6468;DHT22;3267;48.794;9.928;2023-04-29T09:30:22;17.60;83.30
6468;DHT22;3267;48.794;9.928;2023-04-29T09:33:07;17.60;83.10
6468;DHT22;3267;48.794;9.928;2023-04-29T09:35:34;17.70;82.80
6468;DHT22;3267;48.794;9.928;2023-04-29T09:38:18;17.80;82.90
6468;DHT22;3267;48.794;9.928;2023-04-29T09:40:45;17.80;82.70
6468;DHT22;3267;48.794;9.928;2023-04-29T09:43:16;19.70;84.80
6468;DHT22;3267;48.794;9.928;2023-04-29T09:45:47;17.70;82.70
6468;DHT22;3267;48.794;9.928;2023-04-29T09:48:13;18.20;83.20
6468;DHT22;3267;48.794;9.928;2023-04-29T09:50:41;17.60;82.50
6468;DHT22;3267;48.794;9.928;2023-04-29T09:53:09;17.60;82.50
6468;DHT22;3267;48.794;9.928;2023-04-29T09:56:03;18.60;83.50
6468;DHT22;3267;48.794;9.928;2023-04-29T09:58:31;17.60;82.30
6468;DHT22;3267;48.794;9.928;2023-04-29T10:01:02;17.70;82.30
6468;DHT22;3267;48.794;9.928;2023-04-29T10:03:37;17.80;82.20
6468;DHT22;3267;48.794;9.928;2023-04-29T10:06:05;17.80;81.90
6468;DHT22;3267;48.794;9.928;2023-04-29T10:08:32;17.80;82.10
6468;DHT22;3267;48.794;9.928;2023-04-29T10:11:02;17.90;82.20
6468;DHT22;3267;48.794;9.928;2023-04-29T10:13:28;18.00;82.20
6468;DHT22;3267;48.794;9.928;2023-04-29T10:16:20;18.10;81.90
6468;DHT22;3267;48.794;9.928;2023-04-29T10:18:54;18.20;81.70
6468;DHT22;3267;48.794;9.928;2023-04-29T10:21:30;18.20;81.60
6468;DHT22;3267;48.794;9.928;2023-04-29T10:23:57;18.40;81.80
6468;DHT22;3267;48.794;9.928;2023-04-29T10:26:27;18.20;81.50
6468;DHT22;3267;48.794;9.928;2023-04-29T10:28:57;18.20;81.40
6468;DHT22;3267;48.794;9.928;2023-04-29T10:31:28;18.20;81.40
6468;DHT22;3267;48.794;9.928;2023-04-29T10:33:55;19.60;83.00
6468;DHT22;3267;48.794;9.928;2023-04-29T10:36:24;18.20;81.40
6468;DHT22;3267;48.794;9.928;2023-04-29T10:38:53;18.20;81.50
6468;DHT22;3267;48.794;9.928;2023-04-29T10:41:22;18.30;81.50
6468;DHT22;3267;48.794;9.928;2023-04-29T10:43:54;19.60;82.90
6468;DHT22;3267;48.794;9.928;2023-04-29T10:46:21;18.40;81.50
6468;DHT22;3267;48.794;9.928;2023-04-29T10:48:51;18.40;81.50
6468;DHT22;3267;48.794;9.928;2023-04-29T10:51:43;18.50;81.60
6468;DHT22;3267;48.794;9.928;2023-04-29T10:54:17;18.40;81.40
6468;DHT22;3267;48.794;9.928;2023-04-29T10:56:50;18.50;81.40
6468;DHT22;3267;48.794;9.928;2023-04-29T10:59:20;17.50;80.30
6468;DHT22;3267;48.794;9.928;2023-04-29T11:01:53;18.50;81.20
6468;DHT22;3267;48.794;9.928;2023-04-29T11:04:21;18.40;81.00
6468;DHT22;3267;48.794;9.928;2023-04-29T11:06:56;19.20;82.10
6468;DHT22;3267;48.794;9.928;2023-04-29T11:09:24;18.50;81.20
6468;DHT22;3267;48.794;9.928;2023-04-29T11:12:07;18.40;80.60
6468;DHT22;3267;48.794;9.928;2023-04-29T11:14:37;18.50;81.10
6468;DHT22;3267;48.794;9.928;2023-04-29T11:17:10;18.40;80.40
6468;DHT22;3267;48.794;9.928;2023-04-29T11:19:42;19.80;82.00
6468;DHT22;3267;48.794;9.928;2023-04-29T11:22:27;18.40;80.60
6468;DHT22;3267;48.794;9.928;2023-04-29T11:25:05;18.40;80.00
6468;DHT22;3267;48.794;9.928;2023-04-29T11:27:33;18.30;80.00
6468;DHT22;3267;48.794;9.928;2023-04-29T11:30:01;18.40;80.20
6468;DHT22;3267;48.794;9.928;2023-04-29T11:32:34;19.70;81.80
6468;DHT22;3267;48.794;9.928;2023-04-29T11:35:08;18.70;80.40
6468;DHT22;3267;48.794;9.928;2023-04-29T11:37:34;18.50;80.00
6468;DHT22;3267;48.794;9.928;2023-04-29T11:40:00;18.60;79.90
6468;DHT22;3267;48.794;9.928;2023-04-29T11:42:26;18.70;79.20
6468;DHT22;3267;48.794;9.928;2023-04-29T11:44:56;18.80;79.30
6468;DHT22;3267;48.794;9.928;2023-04-29T11:47:30;18.80;79.70
6468;DHT22;3267;48.794;9.928;2023-04-29T11:50:03;18.90;79.20
6468;DHT22;3267;48.794;9.928;2023-04-29T11:52:29;19.00;79.30
6468;DHT22;3267;48.794;9.928;2023-04-29T11:54:57;19.00;78.60
6468;DHT22;3267;48.794;9.928;2023-04-29T11:57:23;19.00;78.70
6468;DHT22;3267;48.794;9.928;2023-04-29T11:59:49;19.00;78.60
6468;DHT22;3267;48.794;9.928;2023-04-29T12:02:15;19.00;78.80
6468;DHT22;3267;48.794;9.928;2023-04-29T12:04:46;19.00;78.80
6468;DHT22;3267;48.794;9.928;2023-04-29T12:07:16;19.20;79.10
6468;DHT22;3267;48.794;9.928;2023-04-29T12:09:45;19.30;78.90
6468;DHT22;3267;48.794;9.928;2023-04-29T12:14:41;19.40;86.10
6468;DHT22;3267;48.794;9.928;2023-04-29T12:17:08;19.60;77.60
6468;DHT22;3267;48.794;9.928;2023-04-29T12:19:34;19.70;78.10
6468;DHT22;3267;48.794;9.928;2023-04-29T12:22:04;19.80;78.00
6468;DHT22;3267;48.794;9.928;2023-04-29T12:24:36;20.00;78.40
6468;DHT22;3267;48.794;9.928;2023-04-29T12:27:03;20.20;78.50
6468;DHT22;3267;48.794;9.928;2023-04-29T12:29:30;20.30;77.60
6468;DHT22;3267;48.794;9.928;2023-04-29T12:31:57;20.50;77.50
6468;DHT22;3267;48.794;9.928;2023-04-29T12:34:30;20.50;76.50
6468;DHT22;3267;48.794;9.928;2023-04-29T12:37:00;20.80;77.50
6468;DHT22;3267;48.794;9.928;2023-04-29T12:39:27;20.60;77.10
6468;DHT22;3267;48.794;9.928;2023-04-29T12:41:59;21.10;77.30
6468;DHT22;3267;48.794;9.928;2023-04-29T12:44:36;20.70;75.70
6468;DHT22;3267;48.794;9.928;2023-04-29T12:47:07;20.70;75.40
6468;DHT22;3267;48.794;9.928;2023-04-29T12:49:34;20.70;76.00
6468;DHT22;3267;48.794;9.928;2023-04-29T12:52:00;21.60;76.40
6468;DHT22;3267;48.794;9.928;2023-04-29T12:54:27;20.60;73.90
6468;DHT22;3267;48.794;9.928;2023-04-29T12:56:52;20.60;74.20
6468;DHT22;3267;48.794;9.928;2023-04-29T12:59:18;20.60;74.30
6468;DHT22;3267;48.794;9.928;2023-04-29T13:01:44;21.60;74.40
6468;DHT22;3267;48.794;9.928;2023-04-29T13:04:09;20.60;75.70
6468;DHT22;3267;48.794;9.928;2023-04-29T13:06:37;20.70;75.50
6468;DHT22;3267;48.794;9.928;2023-04-29T13:09:07;22.00;76.90
6468;DHT22;3267;48.794;9.928;2023-04-29T13:11:37;20.90;75.30
6468;DHT22;3267;48.794;9.928;2023-04-29T13:14:03;21.00;75.20
6468;DHT22;3267;48.794;9.928;2023-04-29T13:16:32;21.00;74.70
6468;DHT22;3267;48.794;9.928;2023-04-29T13:18:58;21.00;75.50
6468;DHT22;3267;48.794;9.928;2023-04-29T13:21:24;20.90;74.40
6468;DHT22;3267;48.794;9.928;2023-04-29T13:23:49;20.80;73.60
6468;DHT22;3267;48.794;9.928;2023-04-29T13:26:16;20.80;73.90
6468;DHT22;3267;48.794;9.928;2023-04-29T13:28:42;20.80;76.20
6468;DHT22;3267;48.794;9.928;2023-04-29T13:31:08;20.80;74.70
6468;DHT22;3267;48.794;9.928;2023-04-29T13:33:34;20.70;75.10
6468;DHT22;3267;48.794;9.928;2023-04-29T13:35:59;20.60;74.60
6468;DHT22;3267;48.794;9.928;2023-04-29T13:38:25;20.70;75.00
6468;DHT22;3267;48.794;9.928;2023-04-29T13:40:50;20.50;73.30
6468;DHT22;3267;48.794;9.928;2023-04-29T13:43:16;20.60;76.20
6468;DHT22;3267;48.794;9.928;2023-04-29T13:45:42;20.60;73.80
6468;DHT22;3267;48.794;9.928;2023-04-29T13:48:07;20.50;75.10
6468;DHT22;3267;48.794;9.928;2023-04-29T13:50:33;20.40;74.10
6468;DHT22;3267;48.794;9.928;2023-04-29T13:52:59;20.40;74.70
6468;DHT22;3267;48.794;9.928;2023-04-29T13:55:24;20.50;74.80
6468;DHT22;3267;48.794;9.928;2023-04-29T13:57:50;21.80;75.40
6468;DHT22;3267;48.794;9.928;2023-04-29T14:00:17;20.50;75.90
6468;DHT22;3267;48.794;9.928;2023-04-29T14:02:42;20.50;75.40
6468;DHT22;3267;48.794;9.928;2023-04-29T14:05:08;20.60;73.30
6468;DHT22;3267;48.794;9.928;2023-04-29T14:07:34;20.60;74.90
6468;DHT22;3267;48.794;9.928;2023-04-29T14:10:00;21.80;76.00
6468;DHT22;3267;48.794;9.928;2023-04-29T14:12:26;21.80;75.60
6468;DHT22;3267;48.794;9.928;2023-04-29T14:14:51;20.90;75.30
6468;DHT22;3267;48.794;9.928;2023-04-29T14:17:18;20.60;74.90
6468;DHT22;3267;48.794;9.928;2023-04-29T14:19:43;20.50;74.80
6468;DHT22;3267;48.794;9.928;2023-04-29T14:22:09;20.80;75.50
6468;DHT22;3267;48.794;9.928;2023-04-29T14:24:34;20.60;76.10
6468;DHT22;3267;48.794;9.928;2023-04-29T14:27:00;20.60;75.80
6468;DHT22;3267;48.794;9.928;2023-04-29T14:29:26;20.60;75.30
6468;DHT22;3267;48.794;9.928;2023-04-29T14:31:52;22.00;76.70
6468;DHT22;3267;48.794;9.928;2023-04-29T14:34:18;20.50;74.20
6468;DHT22;3267;48.794;9.928;2023-04-29T14:36:44;20.50;74.80
6468;DHT22;3267;48.794;9.928;2023-04-29T14:39:11;20.40;74.20
6468;DHT22;3267;48.794;9.928;2023-04-29T14:41:38;20.30;74.30
6468;DHT22;3267;48.794;9.928;2023-04-29T14:44:04;20.90;75.30
6468;DHT22;3267;48.794;9.928;2023-04-29T14:46:32;20.20;74.40
6468;DHT22;3267;48.794;9.928;2023-04-29T14:48:58;20.20;74.30
6468;DHT22;3267;48.794;9.928;2023-04-29T14:51:24;20.20;74.10
6468;DHT22;3267;48.794;9.928;2023-04-29T14:53:50;20.30;75.00
6468;DHT22;3267;48.794;9.928;2023-04-29T14:56:19;20.20;74.30
6468;DHT22;3267;48.794;9.928;2023-04-29T14:58:44;20.10;74.10
6468;DHT22;3267;48.794;9.928;2023-04-29T15:01:10;20.10;73.80
6468;DHT22;3267;48.794;9.928;2023-04-29T15:03:35;20.10;74.30
6468;DHT22;3267;48.794;9.928;2023-04-29T15:06:01;20.10;73.20
6468;DHT22;3267;48.794;9.928;2023-04-29T15:08:30;20.10;72.90
6468;DHT22;3267;48.794;9.928;2023-04-29T15:10:55;20.00;73.60
6468;DHT22;3267;48.794;9.928;2023-04-29T15:13:24;20.00;73.80
6468;DHT22;3267;48.794;9.928;2023-04-29T15:15:49;20.10;73.50
6468;DHT22;3267;48.794;9.928;2023-04-29T15:18:16;20.10;73.50
6468;DHT22;3267;48.794;9.928;2023-04-29T15:20:42;20.10;73.20
6468;DHT22;3267;48.794;9.928;2023-04-29T15:23:07;20.70;74.20
6468;DHT22;3267;48.794;9.928;2023-04-29T15:25:33;20.10;74.10
6468;DHT22;3267;48.794;9.928;2023-04-29T15:27:59;20.10;74.80
6468;DHT22;3267;48.794;9.928;2023-04-29T15:30:26;20.10;74.20
6468;DHT22;3267;48.794;9.928;2023-04-29T15:32:52;21.80;75.60
6468;DHT22;3267;48.794;9.928;2023-04-29T15:35:18;20.00;73.60
6468;DHT22;3267;48.794;9.928;2023-04-29T15:37:44;20.00;74.30
6468;DHT22;3267;48.794;9.928;2023-04-29T15:40:10;20.00;74.10
6468;DHT22;3267;48.794;9.928;2023-04-29T15:42:35;19.90;74.00
6468;DHT22;3267;48.794;9.928;2023-04-29T15:45:01;19.80;73.60
6468;DHT22;3267;48.794;9.928;2023-04-29T15:47:27;19.80;74.30
6468;DHT22;3267;48.794;9.928;2023-04-29T15:49:52;19.70;73.30
6468;DHT22;3267;48.794;9.928;2023-04-29T15:52:20;19.90;74.90
6468;DHT22;3267;48.794;9.928;2023-04-29T15:54:46;19.70;74.40
6468;DHT22;3267;48.794;9.928;2023-04-29T15:57:12;19.60;73.00
6468;DHT22;3267;48.794;9.928;2023-04-29T15:59:37;19.50;73.50
6468;DHT22;3267;48.794;9.928;2023-04-29T16:02:03;19.40;73.70
6468;DHT22;3267;48.794;9.928;2023-04-29T16:04:35;19.40;73.00
6468;DHT22;3267;48.794;9.928;2023-04-29T16:07:00;19.60;73.80
6468;DHT22;3267;48.794;9.928;2023-04-29T16:09:30;19.30;73.80
6468;DHT22;3267;48.794;9.928;2023-04-29T16:11:56;19.40;74.10
6468;DHT22;3267;48.794;9.928;2023-04-29T16:14:23;19.30;73.40
6468;DHT22;3267;48.794;9.928;2023-04-29T16:16:49;19.40;73.50
6468;DHT22;3267;48.794;9.928;2023-04-29T16:19:15;19.60;73.90
6468;DHT22;3267;48.794;9.928;2023-04-29T16:21:40;19.40;73.60
6468;DHT22;3267;48.794;9.928;2023-04-29T16:24:10;19.30;74.10
6468;DHT22;3267;48.794;9.928;2023-04-29T16:26:36;19.20;73.50
6468;DHT22;3267;48.794;9.928;2023-04-29T16:29:02;19.20;74.00
6468;DHT22;3267;48.794;9.928;2023-04-29T16:31:28;19.30;75.70
6468;DHT22;3267;48.794;9.928;2023-04-29T16:33:54;19.20;73.30
6468;DHT22;3267;48.794;9.928;2023-04-29T16:36:21;19.10;73.60
6468;DHT22;3267;48.794;9.928;2023-04-29T16:38:47;19.00;73.70
6468;DHT22;3267;48.794;9.928;2023-04-29T16:41:13;18.90;74.10
6468;DHT22;3267;48.794;9.928;2023-04-29T16:43:39;18.80;73.60
6468;DHT22;3267;48.794;9.928;2023-04-29T16:46:04;18.80;74.30
6468;DHT22;3267;48.794;9.928;2023-04-29T16:48:30;18.70;74.00
6468;DHT22;3267;48.794;9.928;2023-04-29T16:50:56;18.60;73.30
6468;DHT22;3267;48.794;9.928;2023-04-29T16:53:23;18.50;73.90
6468;DHT22;3267;48.794;9.928;2023-04-29T16:55:48;18.40;74.40
6468;DHT22;3267;48.794;9.928;2023-04-29T16:58:15;18.30;73.80
6468;DHT22;3267;48.794;9.928;2023-04-29T17:00:42;18.30;73.90
6468;DHT22;3267;48.794;9.928;2023-04-29T17:03:08;18.30;74.00
6468;DHT22;3267;48.794;9.928;2023-04-29T17:05:34;18.30;74.00
6468;DHT22;3267;48.794;9.928;2023-04-29T17:07:59;18.40;74.20
6468;DHT22;3267;48.794;9.928;2023-04-29T17:10:27;18.20;74.10
6468;DHT22;3267;48.794;9.928;2023-04-29T17:12:53;18.20;73.90
6468;DHT22;3267;48.794;9.928;2023-04-29T17:15:19;18.10;73.80
6468;DHT22;3267;48.794;9.928;2023-04-29T17:17:45;18.00;73.90
6468;DHT22;3267;48.794;9.928;2023-04-29T17:20:11;18.10;74.20
6468;DHT22;3267;48.794;9.928;2023-04-29T17:22:37;17.90;74.00
6468;DHT22;3267;48.794;9.928;2023-04-29T17:25:03;17.90;74.10
6468;DHT22;3267;48.794;9.928;2023-04-29T17:27:29;17.90;74.20
6468;DHT22;3267;48.794;9.928;2023-04-29T17:29:55;17.90;74.10
6468;DHT22;3267;48.794;9.928;2023-04-29T17:32:20;17.90;74.40
6468;DHT22;3267;48.794;9.928;2023-04-29T17:34:56;18.20;74.70
6468;DHT22;3267;48.794;9.928;2023-04-29T17:37:22;17.90;74.40
6468;DHT22;3267;48.794;9.928;2023-04-29T17:39:50;17.80;74.40
6468;DHT22;3267;48.794;9.928;2023-04-29T17:42:19;17.80;74.20
6468;DHT22;3267;48.794;9.928;2023-04-29T17:44:47;17.80;74.30
6468;DHT22;3267;48.794;9.928;2023-04-29T17:47:13;19.30;75.80
6468;DHT22;3267;48.794;9.928;2023-04-29T17:49:42;17.80;74.30
6468;DHT22;3267;48.794;9.928;2023-04-29T17:52:08;17.80;74.40
6468;DHT22;3267;48.794;9.928;2023-04-29T17:54:38;17.80;74.30
6468;DHT22;3267;48.794;9.928;2023-04-29T17:57:03;17.70;74.80
6468;DHT22;3267;48.794;9.928;2023-04-29T17:59:29;17.60;73.90
6468;DHT22;3267;48.794;9.928;2023-04-29T18:01:55;17.60;74.00
6468;DHT22;3267;48.794;9.928;2023-04-29T18:04:21;17.60;74.10
6468;DHT22;3267;48.794;9.928;2023-04-29T18:06:46;18.20;74.80
6468;DHT22;3267;48.794;9.928;2023-04-29T18:09:12;17.50;74.10
6468;DHT22;3267;48.794;9.928;2023-04-29T18:11:39;17.50;74.10
6468;DHT22;3267;48.794;9.928;2023-04-29T18:14:05;17.40;74.00
6468;DHT22;3267;48.794;9.928;2023-04-29T18:16:31;17.40;74.00
6468;DHT22;3267;48.794;9.928;2023-04-29T18:18:56;17.30;74.10
6468;DHT22;3267;48.794;9.928;2023-04-29T18:21:26;18.20;75.00
6468;DHT22;3267;48.794;9.928;2023-04-29T18:23:53;17.20;74.00
6468;DHT22;3267;48.794;9.928;2023-04-29T18:26:18;17.20;74.10
6468;DHT22;3267;48.794;9.928;2023-04-29T18:28:45;18.00;74.90
6468;DHT22;3267;48.794;9.928;2023-04-29T18:31:12;17.20;74.10
6468;DHT22;3267;48.794;9.928;2023-04-29T18:33:38;17.10;74.10
6468;DHT22;3267;48.794;9.928;2023-04-29T18:36:03;17.10;74.10
6468;DHT22;3267;48.794;9.928;2023-04-29T18:38:29;17.10;74.40
6468;DHT22;3267;48.794;9.928;2023-04-29T18:40:55;17.00;74.10
6468;DHT22;3267;48.794;9.928;2023-04-29T18:43:21;17.00;74.40
6468;DHT22;3267;48.794;9.928;2023-04-29T18:45:53;16.90;74.20
6468;DHT22;3267;48.794;9.928;2023-04-29T18:48:19;16.90;74.40
6468;DHT22;3267;48.794;9.928;2023-04-29T18:50:44;16.90;74.30
6468;DHT22;3267;48.794;9.928;2023-04-29T18:53:10;16.90;74.40
6468;DHT22;3267;48.794;9.928;2023-04-29T18:55:36;16.90;74.50
6468;DHT22;3267;48.794;9.928;2023-04-29T18:58:02;17.40;75.00
6468;DHT22;3267;48.794;9.928;2023-04-29T19:00:28;17.40;74.80
6468;DHT22;3267;48.794;9.928;2023-04-29T19:02:54;16.90;74.40
6468;DHT22;3267;48.794;9.928;2023-04-29T19:05:21;17.10;74.80
6468;DHT22;3267;48.794;9.928;2023-04-29T19:07:47;17.80;75.50
6468;DHT22;3267;48.794;9.928;2023-04-29T19:10:13;16.90;74.60
6468;DHT22;3267;48.794;9.928;2023-04-29T19:12:39;16.80;74.50
6468;DHT22;3267;48.794;9.928;2023-04-29T19:15:05;16.80;74.50
6468;DHT22;3267;48.794;9.928;2023-04-29T19:17:32;16.70;74.60
6468;DHT22;3267;48.794;9.928;2023-04-29T19:19:59;16.70;74.70
6468;DHT22;3267;48.794;9.928;2023-04-29T19:22:28;16.70;74.70
6468;DHT22;3267;48.794;9.928;2023-04-29T19:24:54;16.70;74.70
6468;DHT22;3267;48.794;9.928;2023-04-29T19:27:20;16.70;74.70
6468;DHT22;3267;48.794;9.928;2023-04-29T19:29:46;16.60;74.70
6468;DHT22;3267;48.794;9.928;2023-04-29T19:32:11;17.00;75.30
6468;DHT22;3267;48.794;9.928;2023-04-29T19:34:37;16.60;74.80
6468;DHT22;3267;48.794;9.928;2023-04-29T19:37:03;16.60;74.90
6468;DHT22;3267;48.794;9.928;2023-04-29T19:39:28;16.50;74.80
6468;DHT22;3267;48.794;9.928;2023-04-29T19:41:54;16.50;74.90
6468;DHT22;3267;48.794;9.928;2023-04-29T19:44:23;16.40;74.80
6468;DHT22;3267;48.794;9.928;2023-04-29T19:46:50;16.40;75.10
6468;DHT22;3267;48.794;9.928;2023-04-29T19:49:16;16.40;75.10
6468;DHT22;3267;48.794;9.928;2023-04-29T19:51:59;16.40;75.10
6468;DHT22;3267;48.794;9.928;2023-04-29T19:54:25;16.50;75.00
6468;DHT22;3267;48.794;9.928;2023-04-29T19:56:51;16.50;75.70
6468;DHT22;3267;48.794;9.928;2023-04-29T19:59:16;16.50;75.00
6468;DHT22;3267;48.794;9.928;2023-04-29T20:01:42;16.50;74.90
6468;DHT22;3267;48.794;9.928;2023-04-29T20:04:08;16.50;75.00
6468;DHT22;3267;48.794;9.928;2023-04-29T20:06:33;16.50;74.90
6468;DHT22;3267;48.794;9.928;2023-04-29T20:09:02;16.50;75.00